Time;durP1;ratioP1;P1;durP2;ratioP2;P2;SDS_P1;SDS_P2;PMS_P1;PMS_P2;Temp;Humidity;BMP_temperature;BMP_pressure;BME280_temperature;BME280_humidity;BME280_pressure;Samples;Min_cycle;Max_cycle;Signal;HPM_P1;HPM_P2
2022/11/14 00:02:25;;;;;;;6.87;6.03;;;13.00;94.80;;;;;;5073904;28;20211;-70
2022/11/14 00:05:14;;;;;;;7.80;6.30;;;13.00;95.30;;;;;;5072357;28;20705;-71
2022/11/14 00:08:01;;;;;;;8.97;6.10;;;13.00;94.30;;;;;;5073716;28;20210;-69
2022/11/14 00:10:50;;;;;;;6.60;5.87;;;12.90;94.80;;;;;;5073644;28;20215;-71
2022/11/14 00:13:37;;;;;;;7.73;6.27;;;12.90;94.80;;;;;;5071612;28;20223;-71
2022/11/14 00:16:24;;;;;;;10.33;6.23;;;13.00;94.60;;;;;;5061729;28;20367;-68
2022/11/14 00:19:11;;;;;;;10.63;7.10;;;13.00;95.00;;;;;;5052941;28;20275;-71
2022/11/14 00:22:00;;;;;;;9.27;6.03;;;13.10;94.40;;;;;;5054291;28;20217;-72
2022/11/14 00:24:47;;;;;;;9.07;6.10;;;13.10;94.00;;;;;;5054147;28;20208;-72
2022/11/14 00:27:35;;;;;;;11.03;6.53;;;13.10;93.80;;;;;;5054241;28;20244;-71
2022/11/14 00:30:22;;;;;;;8.00;6.93;;;13.10;94.20;;;;;;5060429;28;20225;-72
2022/11/14 00:33:09;;;;;;;9.60;7.30;;;13.10;94.70;;;;;;5057840;28;20205;-72
2022/11/14 00:35:57;;;;;;;8.67;6.93;;;13.10;93.90;;;;;;5073847;28;20592;-71
2022/11/14 00:38:45;;;;;;;10.10;6.67;;;13.00;93.60;;;;;;5074024;28;20340;-72
2022/11/14 00:41:32;;;;;;;9.03;6.30;;;13.00;94.30;;;;;;5073798;28;20278;-71
2022/11/14 00:44:19;;;;;;;10.00;6.30;;;13.00;94.20;;;;;;5073593;28;20211;-72
2022/11/14 00:47:06;;;;;;;7.20;6.50;;;13.00;94.00;;;;;;5073541;28;20208;-73
2022/11/14 00:49:53;;;;;;;8.67;7.40;;;13.00;94.10;;;;;;5073427;28;20212;-71
2022/11/14 00:52:40;;;;;;;8.70;6.67;;;13.00;94.20;;;;;;5073703;28;20709;-72
2022/11/14 00:55:29;;;;;;;9.13;6.77;;;13.00;94.40;;;;;;5073769;28;20720;-73
2022/11/14 00:58:16;;;;;;;10.53;7.03;;;13.00;94.30;;;;;;5073786;28;20285;-67
2022/11/14 01:01:03;;;;;;;8.67;7.00;;;13.00;94.00;;;;;;5073649;28;20216;-69
2022/11/14 01:03:51;;;;;;;11.60;6.70;;;13.00;94.10;;;;;;5073772;28;20321;-72
2022/11/14 01:06:38;;;;;;;10.57;7.20;;;12.90;94.10;;;;;;5073465;28;20235;-67
2022/11/14 01:09:25;;;;;;;11.13;7.10;;;12.90;94.40;;;;;;5073416;28;20261;-65
2022/11/14 01:12:14;;;;;;;8.47;7.23;;;12.90;93.90;;;;;;5073641;28;20208;-66
2022/11/14 01:15:01;;;;;;;10.43;7.27;;;12.90;93.80;;;;;;5063400;28;20675;-69
2022/11/14 01:17:49;;;;;;;12.67;7.47;;;12.90;93.80;;;;;;5057173;28;20211;-67
2022/11/14 01:20:39;;;;;;;10.37;7.57;;;12.90;93.80;;;;;;5053011;28;20299;-69
2022/11/14 01:23:26;;;;;;;8.30;6.60;;;12.90;94.00;;;;;;5053615;28;20372;-69
2022/11/14 01:26:14;;;;;;;9.43;6.87;;;12.90;93.60;;;;;;5053405;28;20702;-70
2022/11/14 01:29:03;;;;;;;10.53;7.13;;;12.80;94.30;;;;;;5053655;28;20216;-68
2022/11/14 01:31:49;;;;;;;11.57;7.30;;;12.70;93.50;;;;;;5053165;28;20211;-69
2022/11/14 01:34:37;;;;;;;9.40;6.87;;;12.60;93.90;;;;;;5053386;28;20267;-67
2022/11/14 01:37:24;;;;;;;9.90;7.30;;;12.60;94.00;;;;;;5053149;28;20240;-67
2022/11/14 01:40:12;;;;;;;10.47;6.97;;;12.60;94.10;;;;;;5052962;28;20332;-72
2022/11/14 01:43:29;;;;;;;8.90;7.37;;;12.70;93.80;;;;;;5053513;28;20537;-65
2022/11/14 01:46:22;;;;;;;9.80;7.53;;;12.70;93.40;;;;;;5052993;28;20708;-68
2022/11/14 01:49:19;;;;;;;9.40;7.20;;;12.50;93.90;;;;;;5053057;28;20608;-68
2022/11/14 01:52:09;;;;;;;9.17;7.23;;;12.60;94.00;;;;;;5053206;28;20300;-67
2022/11/14 01:55:00;;;;;;;10.43;7.80;;;12.60;93.00;;;;;;5053023;28;20213;-68
2022/11/14 01:57:49;;;;;;;13.63;7.73;;;12.60;93.20;;;;;;5052719;28;20745;-67
2022/11/14 02:00:36;;;;;;;12.10;7.77;;;12.50;93.20;;;;;;5052688;28;20681;-66
2022/11/14 02:03:25;;;;;;;10.90;8.37;;;12.50;93.80;;;;;;5053181;28;20314;-67
2022/11/14 02:06:16;;;;;;;10.30;7.70;;;12.60;93.30;;;;;;5052725;28;20200;-70
2022/11/14 02:09:11;;;;;;;11.80;8.87;;;12.60;92.60;;;;;;5053098;28;20247;-71
2022/11/14 02:12:02;;;;;;;10.20;7.10;;;12.60;93.30;;;;;;5052592;28;20223;-69
2022/11/14 02:14:52;;;;;;;8.23;6.60;;;12.50;90.90;;;;;;5052853;28;20208;-71
2022/11/14 02:17:41;;;;;;;9.53;5.87;;;12.20;91.00;;;;;;5052403;28;20236;-69
2022/11/14 02:20:33;;;;;;;6.77;5.57;;;12.10;91.30;;;;;;5052411;28;20232;-73
2022/11/14 02:23:28;;;;;;;6.40;5.43;;;12.20;91.10;;;;;;5052802;28;20215;-72
2022/11/14 02:26:18;;;;;;;7.73;4.93;;;12.20;90.70;;;;;;5052491;28;20252;-71
2022/11/14 02:29:06;;;;;;;7.23;5.60;;;12.30;90.50;;;;;;5056284;28;20701;-72
2022/11/14 02:31:53;;;;;;;6.53;5.63;;;12.30;90.50;;;;;;5056381;28;20224;-69
2022/11/14 02:34:40;;;;;;;9.03;5.57;;;12.30;90.30;;;;;;5056418;28;20559;-71
2022/11/14 02:37:28;;;;;;;7.17;4.77;;;12.40;90.20;;;;;;5056147;28;20275;-67
2022/11/14 02:40:15;;;;;;;5.53;4.47;;;12.30;90.20;;;;;;5056177;28;20208;-68
2022/11/14 02:43:02;;;;;;;5.10;4.60;;;12.30;90.00;;;;;;5056440;28;20268;-69
2022/11/14 02:45:49;;;;;;;7.83;5.67;;;12.40;90.60;;;;;;5056194;28;20312;-69
2022/11/14 02:48:42;;;;;;;5.60;4.60;;;12.40;89.60;;;;;;5055769;28;20205;-66
2022/11/14 02:51:33;;;;;;;6.97;4.97;;;12.40;90.20;;;;;;5055936;28;20673;-71
2022/11/14 02:54:22;;;;;;;6.20;5.60;;;12.40;89.80;;;;;;5055957;28;20243;-73
2022/11/14 02:57:09;;;;;;;6.90;5.43;;;12.30;90.40;;;;;;5055676;28;20755;-71
2022/11/14 02:59:56;;;;;;;6.87;5.33;;;12.30;90.40;;;;;;5055889;28;20212;-68
2022/11/14 03:02:44;;;;;;;7.53;5.13;;;12.40;90.20;;;;;;5056715;28;20215;-73
2022/11/14 03:05:31;;;;;;;5.83;5.23;;;12.30;89.70;;;;;;5056181;28;20232;-68
2022/11/14 03:08:18;;;;;;;5.30;4.80;;;12.30;89.70;;;;;;5056089;28;20200;-66
2022/11/14 03:11:09;;;;;;;6.17;5.30;;;12.10;89.00;;;;;;5055774;28;20211;-72
2022/11/14 03:13:56;;;;;;;5.97;5.37;;;12.00;89.90;;;;;;5055573;28;20258;-66
2022/11/14 03:16:43;;;;;;;6.57;5.17;;;12.00;90.20;;;;;;5055474;28;20223;-69
2022/11/14 03:19:31;;;;;;;6.40;5.60;;;12.00;89.10;;;;;;5055276;28;20243;-69
2022/11/14 03:22:18;;;;;;;8.27;6.00;;;12.00;89.50;;;;;;5067987;28;20693;-68
2022/11/14 03:25:06;;;;;;;7.83;6.10;;;12.00;89.50;;;;;;5073251;28;20208;-66
2022/11/14 03:27:54;;;;;;;5.93;4.83;;;12.10;90.00;;;;;;5062741;28;20310;-67
2022/11/14 03:30:41;;;;;;;8.63;4.80;;;12.20;89.70;;;;;;5075818;28;20211;-70
2022/11/14 03:33:28;;;;;;;6.30;5.03;;;12.30;88.80;;;;;;5075311;28;20242;-74
2022/11/14 03:36:15;;;;;;;6.43;5.40;;;12.30;88.30;;;;;;5075141;28;20732;-73
2022/11/14 03:39:02;;;;;;;6.33;4.67;;;12.30;88.60;;;;;;5074003;28;20693;-71
2022/11/14 03:41:49;;;;;;;8.63;5.67;;;12.20;88.70;;;;;;5075371;28;20227;-71
2022/11/14 03:44:38;;;;;;;6.57;5.60;;;12.20;88.10;;;;;;5075405;28;20301;-71
2022/11/14 03:47:25;;;;;;;10.80;8.20;;;12.20;87.70;;;;;;5075101;28;20207;-71
2022/11/14 03:50:11;;;;;;;8.53;6.73;;;12.20;88.00;;;;;;5074841;28;20230;-73
2022/11/14 03:52:59;;;;;;;10.27;7.57;;;12.20;88.30;;;;;;5075272;28;20567;-72
2022/11/14 03:55:46;;;;;;;11.43;6.60;;;12.10;88.00;;;;;;5074670;28;20323;-71
2022/11/14 03:58:33;;;;;;;11.97;7.23;;;12.20;88.00;;;;;;4980845;28;20239;-72
2022/11/14 04:01:21;;;;;;;8.07;6.20;;;12.10;88.30;;;;;;4990845;28;20254;-72
2022/11/14 04:04:13;;;;;;;9.23;6.97;;;12.00;89.40;;;;;;4993294;28;20311;-75
2022/11/14 04:07:00;;;;;;;10.00;6.63;;;12.00;90.20;;;;;;4993764;28;20227;-75
2022/11/14 04:09:47;;;;;;;11.73;7.87;;;12.00;90.30;;;;;;4993227;28;20346;-74
2022/11/14 04:12:34;;;;;;;10.63;7.07;;;12.00;90.30;;;;;;4993273;28;20310;-73
2022/11/14 04:15:21;;;;;;;9.60;8.53;;;12.00;89.80;;;;;;4995919;28;20254;-75
2022/11/14 04:18:09;;;;;;;10.97;7.90;;;12.00;89.80;;;;;;5054352;28;20244;-74
2022/11/14 04:20:56;;;;;;;11.03;8.73;;;11.80;90.60;;;;;;5054281;28;20302;-74
2022/11/14 04:23:43;;;;;;;10.03;8.07;;;11.70;91.20;;;;;;5054574;28;20561;-75
2022/11/14 04:26:30;;;;;;;12.97;9.03;;;11.60;91.60;;;;;;5054635;28;20212;-74
2022/11/14 04:29:18;;;;;;;11.03;8.43;;;11.50;91.60;;;;;;5054222;28;20219;-68
2022/11/14 04:32:05;;;;;;;12.20;8.47;;;11.60;91.80;;;;;;5054156;28;20589;-74
2022/11/14 04:34:53;;;;;;;12.10;8.40;;;11.70;91.40;;;;;;5054422;28;20197;-70
2022/11/14 04:37:40;;;;;;;11.27;8.00;;;11.80;91.30;;;;;;5054195;28;20232;-74
2022/11/14 04:40:27;;;;;;;12.00;8.53;;;12.00;90.60;;;;;;5054680;28;20245;-74
2022/11/14 04:43:14;;;;;;;9.77;7.77;;;12.00;90.80;;;;;;5053882;28;20204;-68
2022/11/14 04:46:01;;;;;;;11.73;8.63;;;12.00;90.30;;;;;;5053869;28;20208;-66
2022/11/14 04:48:48;;;;;;;11.83;9.10;;;12.00;90.50;;;;;;5053952;28;20215;-68
2022/11/14 04:51:37;;;;;;;14.70;9.40;;;12.10;89.60;;;;;;5053574;28;20267;-75
2022/11/14 04:54:24;;;;;;;11.47;8.93;;;11.80;90.20;;;;;;5053642;28;20311;-69
2022/11/14 04:57:11;;;;;;;12.90;10.40;;;11.70;90.80;;;;;;5053798;28;20212;-68
2022/11/14 04:59:58;;;;;;;25.23;13.50;;;11.50;90.80;;;;;;5053906;28;20212;-66
2022/11/14 05:02:45;;;;;;;15.43;10.40;;;11.50;91.80;;;;;;5058140;28;20262;-74
2022/11/14 05:05:32;;;;;;;14.10;10.50;;;11.50;90.90;;;;;;5072251;28;20219;-75
2022/11/14 05:08:24;;;;;;;12.67;8.90;;;11.50;91.00;;;;;;5073528;28;20201;-74
2022/11/14 05:11:14;;;;;;;11.00;8.93;;;11.50;90.80;;;;;;5073675;28;20252;-69
2022/11/14 05:14:01;;;;;;;13.07;9.93;;;11.60;91.00;;;;;;5073704;28;20215;-75
2022/11/14 05:16:48;;;;;;;13.43;9.77;;;11.50;90.60;;;;;;5073336;28;20566;-68
2022/11/14 05:19:35;;;;;;;12.77;9.20;;;11.50;90.60;;;;;;5072971;28;20607;-69
2022/11/14 05:22:22;;;;;;;13.13;9.80;;;11.50;90.40;;;;;;5073459;28;20214;-72
2022/11/14 05:25:11;;;;;;;14.07;9.70;;;11.50;90.80;;;;;;5073171;28;20204;-68
2022/11/14 05:27:58;;;;;;;13.50;9.80;;;11.50;90.60;;;;;;5073121;28;20262;-69
2022/11/14 05:30:45;;;;;;;14.03;9.60;;;11.50;90.60;;;;;;5073433;28;20218;-74
2022/11/14 05:33:32;;;;;;;12.60;9.30;;;11.50;90.70;;;;;;5073453;28;20211;-73
2022/11/14 05:36:19;;;;;;;14.33;10.27;;;11.60;90.50;;;;;;5073020;28;20208;-69
2022/11/14 05:39:06;;;;;;;14.00;10.70;;;11.60;90.90;;;;;;5073029;28;20239;-70
2022/11/14 05:41:55;;;;;;;14.60;10.03;;;11.60;90.80;;;;;;5073170;28;20689;-71
2022/11/14 05:44:42;;;;;;;10.40;8.73;;;11.60;90.60;;;;;;5072876;28;20221;-70
2022/11/14 05:47:29;;;;;;;11.50;9.23;;;11.60;91.00;;;;;;5070889;28;20680;-72
2022/11/14 05:50:16;;;;;;;12.43;9.63;;;11.70;90.70;;;;;;5068586;28;20288;-74
2022/11/14 05:53:03;;;;;;;14.00;11.10;;;11.70;90.40;;;;;;5053095;28;20216;-74
2022/11/14 05:55:50;;;;;;;14.70;10.77;;;11.70;90.80;;;;;;5053092;28;20748;-74
2022/11/14 05:58:39;;;;;;;14.53;10.47;;;11.60;91.00;;;;;;5052782;28;20710;-74
2022/11/14 06:01:26;;;;;;;16.00;11.33;;;11.60;91.40;;;;;;5053049;28;20204;-75
2022/11/14 06:04:14;;;;;;;13.93;10.57;;;11.50;92.00;;;;;;5056836;28;20200;-67
2022/11/14 06:07:01;;;;;;;17.07;12.03;;;11.50;92.80;;;;;;5057177;28;20208;-71
2022/11/14 06:09:48;;;;;;;15.57;11.67;;;11.50;93.00;;;;;;5057129;28;20290;-70
2022/11/14 06:12:35;;;;;;;17.37;11.97;;;11.50;93.70;;;;;;5056904;28;20252;-74
2022/11/14 06:15:23;;;;;;;19.67;12.33;;;11.40;94.60;;;;;;5056650;28;20277;-67
2022/11/14 06:18:11;;;;;;;19.00;12.17;;;11.30;95.00;;;;;;5056882;28;20351;-74
2022/11/14 06:21:00;;;;;;;17.37;12.60;;;11.40;95.20;;;;;;5056735;28;20307;-67
2022/11/14 06:23:47;;;;;;;18.80;12.87;;;11.40;95.30;;;;;;5056426;28;20577;-68
2022/11/14 06:26:34;;;;;;;18.43;12.40;;;11.40;95.40;;;;;;5056847;28;20279;-70
2022/11/14 06:29:21;;;;;;;20.47;12.97;;;11.50;95.30;;;;;;5056778;28;20219;-69
2022/11/14 06:32:10;;;;;;;20.07;12.83;;;11.30;95.90;;;;;;5073066;28;20572;-67
2022/11/14 06:34:57;;;;;;;20.30;13.00;;;11.30;96.30;;;;;;5076654;28;20285;-74
2022/11/14 06:37:44;;;;;;;19.23;11.17;;;11.40;96.10;;;;;;5076619;28;20209;-72
2022/11/14 06:40:30;;;;;;;18.13;11.67;;;11.40;96.30;;;;;;5076119;28;20214;-66
2022/11/14 06:43:17;;;;;;;18.20;13.20;;;11.50;95.80;;;;;;5076486;28;20738;-72
2022/11/14 06:46:05;;;;;;;19.00;13.73;;;11.40;96.10;;;;;;5069985;28;20704;-72
2022/11/14 06:48:54;;;;;;;25.07;13.63;;;11.50;96.20;;;;;;5065800;28;20271;-72
2022/11/14 06:51:41;;;;;;;21.83;13.40;;;11.40;96.10;;;;;;5056456;28;20220;-72
2022/11/14 06:54:28;;;;;;;19.97;14.03;;;11.40;96.30;;;;;;5056328;28;20212;-73
2022/11/14 06:57:15;;;;;;;18.87;13.37;;;11.40;96.90;;;;;;5056295;28;20212;-73
2022/11/14 07:00:03;;;;;;;21.93;13.70;;;11.30;97.20;;;;;;5055889;28;20232;-74
2022/11/14 07:02:50;;;;;;;23.83;15.33;;;11.40;97.20;;;;;;5075698;28;20266;-74
2022/11/14 07:05:39;;;;;;;22.00;14.83;;;11.40;97.30;;;;;;5076192;28;20278;-70
2022/11/14 07:08:26;;;;;;;24.03;15.60;;;11.40;97.20;;;;;;5075865;28;20216;-73
2022/11/14 07:11:21;;;;;;;24.10;16.10;;;11.30;97.80;;;;;;5075963;28;20196;-74
2022/11/14 07:14:09;;;;;;;26.27;18.23;;;11.30;98.30;;;;;;5075894;28;20227;-74
2022/11/14 07:16:57;;;;;;;28.30;17.20;;;11.40;98.00;;;;;;5075939;28;20203;-73
2022/11/14 07:19:44;;;;;;;26.03;16.40;;;11.60;97.50;;;;;;5074740;28;20366;-73
2022/11/14 07:22:33;;;;;;;23.10;15.50;;;11.60;97.20;;;;;;5075888;28;20203;-74
2022/11/14 07:25:21;;;;;;;25.60;15.93;;;11.60;97.20;;;;;;5075676;28;20250;-72
2022/11/14 07:28:08;;;;;;;27.07;18.40;;;11.50;97.80;;;;;;5075735;28;20207;-73
2022/11/14 07:30:55;;;;;;;28.77;21.20;;;11.40;98.10;;;;;;5063266;28;20577;-70
2022/11/14 07:33:44;;;;;;;25.23;16.77;;;11.30;98.30;;;;;;5061695;28;20208;-68
2022/11/14 07:36:31;;;;;;;29.87;17.13;;;11.20;98.50;;;;;;5075664;28;20211;-72
2022/11/14 07:39:19;;;;;;;28.57;16.90;;;11.20;98.40;;;;;;5075557;28;20234;-74
2022/11/14 07:42:06;;;;;;;24.53;18.03;;;11.30;98.50;;;;;;5075418;28;20208;-73
2022/11/14 07:44:53;;;;;;;32.10;19.20;;;11.30;98.90;;;;;;5075099;28;20257;-72
2022/11/14 07:47:40;;;;;;;28.97;20.03;;;11.40;98.70;;;;;;5075507;28;20298;-72
2022/11/14 07:50:29;;;;;;;28.67;20.90;;;11.30;99.00;;;;;;5075048;28;20200;-74
2022/11/14 07:53:16;;;;;;;30.97;19.93;;;11.20;99.40;;;;;;5075240;28;20210;-74
2022/11/14 07:56:08;;;;;;;32.57;19.27;;;11.20;99.40;;;;;;5075349;28;20314;-72
2022/11/14 07:58:55;;;;;;;30.63;19.47;;;11.20;99.50;;;;;;5075116;28;20724;-69
2022/11/14 08:01:42;;;;;;;44.80;27.47;;;11.20;99.70;;;;;;5075169;28;20215;-72
2022/11/14 08:04:29;;;;;;;34.87;19.20;;;11.50;99.90;;;;;;5075169;28;20239;-73
2022/11/14 08:07:16;;;;;;;36.13;21.50;;;11.30;99.70;;;;;;5075071;28;20207;-73
2022/11/14 08:10:03;;;;;;;37.20;20.43;;;11.30;99.90;;;;;;5074656;28;20599;-73
2022/11/14 08:12:59;;;;;;;28.67;19.30;;;11.30;99.90;;;;;;5074919;28;20680;-72
2022/11/14 08:16:08;;;;;;;33.10;18.10;;;11.20;99.90;;;;;;5074689;28;20357;-74
2022/11/14 08:18:59;;;;;;;34.80;20.33;;;11.00;99.90;;;;;;5074206;28;20352;-73
2022/11/14 08:21:46;;;;;;;27.57;18.43;;;11.10;99.90;;;;;;5074608;28;20681;-73
2022/11/14 08:24:33;;;;;;;28.67;18.23;;;11.00;99.90;;;;;;5064441;28;20565;-69
2022/11/14 08:27:20;;;;;;;22.03;15.57;;;11.10;99.90;;;;;;5061454;28;20766;-73
2022/11/14 08:30:09;;;;;;;43.90;25.87;;;11.10;99.90;;;;;;5074506;28;20735;-71
2022/11/14 08:32:57;;;;;;;35.70;19.53;;;11.00;99.90;;;;;;5074435;28;20232;-73
2022/11/14 08:35:44;;;;;;;21.70;14.37;;;11.10;99.90;;;;;;5074434;28;20203;-71
2022/11/14 08:38:32;;;;;;;22.70;15.33;;;10.90;99.90;;;;;;5074457;28;20211;-71
2022/11/14 08:41:21;;;;;;;21.63;13.63;;;10.90;99.90;;;;;;5074359;28;20208;-70
2022/11/14 08:44:07;;;;;;;21.77;12.27;;;11.00;99.90;;;;;;5071822;28;20342;-76
2022/11/14 08:46:59;;;;;;;24.07;14.30;;;11.00;99.90;;;;;;5073558;28;20207;-77
2022/11/14 08:49:46;;;;;;;22.20;13.80;;;10.80;99.90;;;;;;5073960;28;20208;-70
2022/11/14 08:52:33;;;;;;;22.53;15.10;;;10.80;99.90;;;;;;5073218;28;20230;-69
2022/11/14 08:55:20;;;;;;;21.47;13.80;;;10.90;99.90;;;;;;5064700;28;20216;-66
2022/11/14 08:58:07;;;;;;;21.47;13.67;;;10.90;99.90;;;;;;5053772;28;20209;-67
2022/11/14 09:00:54;;;;;;;20.63;13.73;;;10.90;99.90;;;;;;5053760;28;20228;-68
2022/11/14 09:03:42;;;;;;;29.40;17.07;;;10.90;99.90;;;;;;5053525;28;20555;-71
2022/11/14 09:06:30;;;;;;;20.30;14.63;;;11.20;99.90;;;;;;5053586;28;20212;-70
2022/11/14 09:09:17;;;;;;;33.97;19.70;;;11.30;99.90;;;;;;5055300;28;20716;-69
2022/11/14 09:12:04;;;;;;;33.57;19.53;;;11.40;99.90;;;;;;5059092;28;20200;-67
2022/11/14 09:14:51;;;;;;;23.20;14.73;;;11.60;99.90;;;;;;5063132;28;20266;-72
2022/11/14 09:17:38;;;;;;;18.80;13.13;;;11.70;98.60;;;;;;5073207;28;20620;-70
2022/11/14 09:20:29;;;;;;;20.37;14.07;;;11.60;98.50;;;;;;5073118;28;20586;-72
2022/11/14 09:23:20;;;;;;;23.50;14.87;;;11.50;98.00;;;;;;5072829;28;20223;-72
2022/11/14 09:26:09;;;;;;;18.03;12.80;;;11.70;98.40;;;;;;5073224;28;20234;-67
2022/11/14 09:28:55;;;;;;;17.03;12.40;;;11.50;97.00;;;;;;5061303;28;20278;-67
2022/11/14 09:31:43;;;;;;;16.67;11.53;;;11.50;97.20;;;;;;5053241;28;21711;-72
2022/11/14 09:34:29;;;;;;;13.33;10.63;;;11.60;96.30;;;;;;5062135;28;20280;-74
2022/11/14 09:37:18;;;;;;;15.60;10.80;;;11.50;95.50;;;;;;5060490;28;20693;-73
2022/11/14 09:40:06;;;;;;;16.33;10.53;;;11.40;94.40;;;;;;5072641;28;20270;-73
2022/11/14 09:43:11;;;;;;;12.43;9.83;;;11.40;94.40;;;;;;5073231;28;20264;-73
2022/11/14 09:45:58;;;;;;;15.70;10.60;;;11.20;95.30;;;;;;5072693;28;20282;-72
2022/11/14 09:48:45;;;;;;;12.60;9.47;;;11.20;95.60;;;;;;5072623;28;20207;-74
2022/11/14 09:51:37;;;;;;;11.17;9.40;;;11.30;95.00;;;;;;5072458;28;20335;-75
2022/11/14 09:54:28;;;;;;;12.37;9.30;;;11.20;94.70;;;;;;5072924;28;20249;-74
2022/11/14 09:57:17;;;;;;;13.53;9.27;;;11.40;94.60;;;;;;5072917;28;20347;-70
2022/11/14 10:00:13;;;;;;;9.90;8.47;;;11.20;94.50;;;;;;5072497;28;20725;-72
2022/11/14 10:03:14;;;;;;;13.70;9.60;;;11.20;94.50;;;;;;5073237;28;20694;-72
2022/11/14 10:06:17;;;;;;;12.93;10.17;;;11.30;94.20;;;;;;5072727;28;20219;-73
2022/11/14 10:09:29;;;;;;;11.33;9.47;;;11.10;94.80;;;;;;5072136;28;20199;-68
2022/11/14 10:12:22;;;;;;;9.97;8.83;;;11.20;95.20;;;;;;5052631;28;20200;-72
2022/11/14 10:15:25;;;;;;;11.03;9.47;;;11.30;94.60;;;;;;5065571;28;20345;-73
2022/11/14 10:18:36;;;;;;;12.43;9.60;;;11.30;94.70;;;;;;5052441;28;20230;-72
2022/11/14 10:21:41;;;;;;;11.13;8.63;;;11.40;94.20;;;;;;5051891;28;20236;-68
2022/11/14 10:24:47;;;;;;;12.17;9.77;;;11.40;94.60;;;;;;5061714;28;20203;-72
2022/11/14 10:27:43;;;;;;;11.40;9.73;;;11.40;94.30;;;;;;5061020;28;20280;-74
2022/11/14 10:30:40;;;;;;;12.43;9.73;;;11.60;93.60;;;;;;5052425;28;20229;-68
2022/11/14 10:33:36;;;;;;;14.60;9.67;;;11.70;92.90;;;;;;5063241;28;20203;-70
2022/11/14 10:36:32;;;;;;;11.53;9.67;;;11.80;92.30;;;;;;5070582;28;20310;-66
2022/11/14 10:39:23;;;;;;;12.40;10.53;;;11.60;93.10;;;;;;5072462;28;20211;-73
2022/11/14 10:42:14;;;;;;;10.20;9.00;;;11.80;92.90;;;;;;5067295;28;20200;-71
2022/11/14 10:45:08;;;;;;;11.03;9.00;;;11.90;92.80;;;;;;5067768;28;20216;-71
2022/11/14 10:47:59;;;;;;;11.27;9.67;;;12.00;92.10;;;;;;5073196;28;20199;-72
2022/11/14 10:50:52;;;;;;;11.37;9.67;;;11.90;92.40;;;;;;5076121;28;20212;-70
2022/11/14 10:53:48;;;;;;;11.17;9.40;;;11.70;93.30;;;;;;5061513;28;20201;-71
2022/11/14 10:56:35;;;;;;;12.77;9.87;;;11.70;93.80;;;;;;5055985;28;20247;-70
2022/11/14 10:59:23;;;;;;;11.47;10.17;;;12.00;93.50;;;;;;5055786;28;20594;-72
2022/11/14 11:02:12;;;;;;;12.00;10.63;;;12.10;92.50;;;;;;5056012;28;20209;-70
2022/11/14 11:05:12;;;;;;;16.50;11.20;;;11.90;92.90;;;;;;5056000;28;20199;-72
2022/11/14 11:11:30;;;;;;;12.63;11.00;;;11.80;92.80;;;;;;5055688;28;20205;-67
2022/11/14 11:14:19;;;;;;;14.63;11.50;;;11.60;93.70;;;;;;5055453;28;20673;-73
2022/11/14 11:17:58;;;;;;;12.97;11.43;;;11.50;94.70;;;;;;5055623;28;20245;-66
2022/11/14 11:21:00;;;;;;;13.77;11.03;;;11.50;94.50;;;;;;5033154;28;20664;-73
2022/11/14 11:23:52;;;;;;;15.43;11.33;;;11.60;93.90;;;;;;5033408;28;20208;-71
2022/11/14 11:26:40;;;;;;;16.30;11.33;;;11.80;93.30;;;;;;5033729;28;20205;-68
2022/11/14 11:29:27;;;;;;;14.17;11.40;;;12.00;92.60;;;;;;5033474;28;20209;-73
2022/11/14 11:32:25;;;;;;;14.87;11.90;;;12.30;90.70;;;;;;5033402;28;20248;-70
2022/11/14 11:35:16;;;;;;;14.33;11.30;;;12.10;90.80;;;;;;5033369;28;20346;-72
2022/11/14 11:38:04;;;;;;;14.00;10.57;;;11.90;91.00;;;;;;5033475;28;20679;-72
2022/11/14 11:40:54;;;;;;;14.00;11.27;;;11.90;91.40;;;;;;5033544;28;20220;-71
2022/11/14 11:43:45;;;;;;;12.70;10.23;;;12.00;91.40;;;;;;5033100;28;20213;-67
2022/11/14 11:46:38;;;;;;;14.43;11.23;;;12.10;91.30;;;;;;5033288;28;20213;-68
2022/11/14 11:49:35;;;;;;;25.13;14.37;;;12.10;90.70;;;;;;5045582;28;20295;-69
2022/11/14 11:52:32;;;;;;;17.90;11.97;;;12.00;91.40;;;;;;5053207;28;20212;-66
2022/11/14 11:55:24;;;;;;;15.77;11.50;;;12.00;91.60;;;;;;5044688;28;20209;-68
2022/11/14 11:58:18;;;;;;;18.90;13.17;;;12.00;91.10;;;;;;5053487;28;20565;-72
2022/11/14 12:01:05;;;;;;;23.00;16.70;;;12.00;91.40;;;;;;5053743;28;20279;-72
2022/11/14 12:03:54;;;;;;;16.37;12.67;;;12.10;91.40;;;;;;5055055;28;20275;-73
2022/11/14 12:06:47;;;;;;;46.73;33.50;;;12.10;91.00;;;;;;5054817;28;20213;-71
2022/11/14 12:09:40;;;;;;;45.53;29.77;;;12.40;91.10;;;;;;5054851;28;20212;-73
2022/11/14 12:13:10;;;;;;;63.80;45.47;;;12.60;89.00;;;;;;5062237;28;20677;-72
2022/11/14 12:16:10;;;;;;;56.73;40.17;;;12.70;90.10;;;;;;5051713;28;20336;-73
2022/11/14 12:19:34;;;;;;;106.77;70.07;;;12.70;89.50;;;;;;5054681;28;20208;-73
2022/11/14 12:22:50;;;;;;;20.27;13.63;;;12.70;89.30;;;;;;5054147;28;20228;-73
2022/11/14 12:25:47;;;;;;;21.60;14.53;;;12.70;86.60;;;;;;5054565;28;20631;-67
2022/11/14 12:28:59;;;;;;;40.43;21.93;;;12.60;88.30;;;;;;5054178;28;20691;-69
2022/11/14 12:31:47;;;;;;;21.07;13.07;;;12.60;86.90;;;;;;5054330;28;20671;-69
2022/11/14 12:34:38;;;;;;;17.63;11.53;;;12.50;89.30;;;;;;5054030;28;20208;-69
2022/11/14 12:37:32;;;;;;;14.70;12.00;;;12.40;88.40;;;;;;5054373;28;20205;-73
2022/11/14 12:40:26;;;;;;;18.77;13.60;;;12.40;88.70;;;;;;5054310;28;20236;-73
2022/11/14 12:43:32;;;;;;;26.67;15.67;;;12.20;90.50;;;;;;5065037;28;20308;-74
2022/11/14 12:46:22;;;;;;;16.73;13.77;;;12.10;90.30;;;;;;5054123;28;20276;-73
2022/11/14 12:49:38;;;;;;;18.97;13.60;;;11.70;91.90;;;;;;5071927;28;20204;-72
2022/11/14 12:52:48;;;;;;;17.60;13.43;;;11.60;93.60;;;;;;5074298;28;20218;-74
2022/11/14 12:55:58;;;;;;;18.27;13.97;;;11.50;93.60;;;;;;5072624;28;20203;-73
2022/11/14 12:59:17;;;;;;;17.83;13.60;;;11.70;93.50;;;;;;5064127;28;20216;-73
2022/11/14 13:02:47;;;;;;;16.03;13.97;;;11.90;92.60;;;;;;5053625;28;20282;-73
2022/11/14 13:05:52;;;;;;;20.17;14.60;;;12.00;91.40;;;;;;5061241;28;20203;-74
2022/11/14 13:09:01;;;;;;;17.97;15.23;;;11.90;92.90;;;;;;5073893;28;20210;-72
2022/11/14 13:25:18;;;;;;;20.53;17.00;;;10.90;96.10;;;;;;5073550;28;20211;-74
2022/11/14 13:28:34;;;;;;;21.17;17.20;;;10.70;96.60;;;;;;5073283;28;20239;-75
2022/11/14 13:31:25;;;;;;;20.17;16.20;;;10.80;96.80;;;;;;5073295;28;20579;-75
2022/11/14 13:34:50;;;;;;;20.70;17.13;;;10.90;96.90;;;;;;5066271;28;20677;-74
2022/11/14 13:37:57;;;;;;;18.97;16.03;;;11.00;96.50;;;;;;5067705;28;20214;-72
2022/11/14 13:40:55;;;;;;;22.53;17.87;;;10.70;96.70;;;;;;5073317;28;20206;-68
2022/11/14 13:43:59;;;;;;;29.57;20.60;;;10.50;98.10;;;;;;5063556;28;20204;-73
2022/11/14 13:47:08;;;;;;;21.50;17.70;;;10.60;98.10;;;;;;5053413;28;20553;-71
2022/11/14 13:50:01;;;;;;;25.37;18.93;;;10.60;97.90;;;;;;5052888;28;20266;-70
2022/11/14 13:52:49;;;;;;;24.70;19.80;;;10.60;98.00;;;;;;5053052;28;20274;-74
2022/11/14 13:55:53;;;;;;;55.53;33.27;;;10.60;98.30;;;;;;5052945;28;20282;-68
2022/11/14 13:59:23;;;;;;;26.10;19.47;;;10.70;98.00;;;;;;5068002;28;20296;-68
2022/11/14 14:02:48;;;;;;;24.93;19.03;;;10.70;97.90;;;;;;5072790;28;20224;-69
2022/11/14 14:05:57;;;;;;;28.30;18.93;;;10.50;98.60;;;;;;5072556;28;20203;-68
2022/11/14 14:09:08;;;;;;;25.67;19.17;;;10.50;98.50;;;;;;5073079;28;20203;-70
2022/11/14 14:12:10;;;;;;;26.53;19.13;;;10.40;99.20;;;;;;5072322;28;20194;-68
2022/11/14 14:15:16;;;;;;;31.90;18.70;;;10.60;98.60;;;;;;5072128;28;20292;-69
2022/11/14 14:18:12;;;;;;;26.00;19.37;;;10.50;98.60;;;;;;5072967;28;20211;-70
2022/11/14 14:21:08;;;;;;;23.33;18.30;;;10.50;98.80;;;;;;5062244;28;20231;-72
2022/11/14 14:24:05;;;;;;;22.10;18.03;;;10.20;99.10;;;;;;5075341;28;20289;-68
2022/11/14 14:27:01;;;;;;;22.80;19.37;;;10.00;99.90;;;;;;5076893;28;20296;-68
2022/11/14 14:29:56;;;;;;;26.03;19.97;;;10.10;99.90;;;;;;5076860;28;20727;-69
2022/11/14 14:32:44;;;;;;;26.63;19.80;;;10.30;99.50;;;;;;5075720;28;20211;-70
2022/11/14 14:35:34;;;;;;;23.90;19.57;;;10.20;99.40;;;;;;5076181;28;20562;-70
2022/11/14 14:38:29;;;;;;;24.90;19.23;;;10.20;99.70;;;;;;5076629;28;20258;-68
2022/11/14 14:41:18;;;;;;;24.30;19.33;;;10.30;99.50;;;;;;5076454;28;20215;-68
2022/11/14 14:44:06;;;;;;;25.47;19.30;;;10.40;99.30;;;;;;5076179;28;20584;-71
2022/11/14 14:46:54;;;;;;;26.10;20.00;;;10.40;99.00;;;;;;5071773;28;20251;-71
2022/11/14 14:49:41;;;;;;;23.07;18.20;;;10.10;99.50;;;;;;5076208;28;20262;-72
2022/11/14 14:52:30;;;;;;;22.00;18.00;;;10.00;99.90;;;;;;5076335;28;20239;-70
2022/11/14 14:55:22;;;;;;;22.83;19.17;;;9.80;99.90;;;;;;5076052;28;20202;-70